sensor_id;sensor_type;location;lat;lon;timestamp;P1;durP1;ratioP1;P2;durP2;ratioP2
920;SDS011;447;51.332;6.778;2023-04-25T00:00:09;6.70;;;4.63;;
920;SDS011;447;51.332;6.778;2023-04-25T00:02:38;13.57;;;4.53;;
920;SDS011;447;51.332;6.778;2023-04-25T00:05:07;6.33;;;3.90;;
920;SDS011;447;51.332;6.778;2023-04-25T00:07:34;8.20;;;4.20;;
920;SDS011;447;51.332;6.778;2023-04-25T00:10:00;7.30;;;3.90;;
920;SDS011;447;51.332;6.778;2023-04-25T00:12:26;6.53;;;4.00;;
920;SDS011;447;51.332;6.778;2023-04-25T00:14:54;7.33;;;3.80;;
920;SDS011;447;51.332;6.778;2023-04-25T00:17:22;9.83;;;4.10;;
920;SDS011;447;51.332;6.778;2023-04-25T00:19:50;8.10;;;4.20;;
920;SDS011;447;51.332;6.778;2023-04-25T00:22:20;4.80;;;4.07;;
920;SDS011;447;51.332;6.778;2023-04-25T00:24:46;6.63;;;3.50;;
920;SDS011;447;51.332;6.778;2023-04-25T00:27:12;6.77;;;4.00;;
920;SDS011;447;51.332;6.778;2023-04-25T00:29:43;6.97;;;4.00;;
920;SDS011;447;51.332;6.778;2023-04-25T00:32:09;6.77;;;4.20;;
920;SDS011;447;51.332;6.778;2023-04-25T00:34:38;5.50;;;3.43;;
920;SDS011;447;51.332;6.778;2023-04-25T00:37:08;5.50;;;3.23;;
920;SDS011;447;51.332;6.778;2023-04-25T00:39:34;7.60;;;4.10;;
920;SDS011;447;51.332;6.778;2023-04-25T00:42:00;7.77;;;4.00;;
920;SDS011;447;51.332;6.778;2023-04-25T00:44:27;13.50;;;5.00;;
920;SDS011;447;51.332;6.778;2023-04-25T00:46:57;8.87;;;4.40;;
920;SDS011;447;51.332;6.778;2023-04-25T00:49:26;9.53;;;3.80;;
920;SDS011;447;51.332;6.778;2023-04-25T00:51:52;6.20;;;3.80;;
920;SDS011;447;51.332;6.778;2023-04-25T00:54:20;6.83;;;3.97;;
920;SDS011;447;51.332;6.778;2023-04-25T00:56:46;7.70;;;3.50;;
920;SDS011;447;51.332;6.778;2023-04-25T00:59:15;5.17;;;3.70;;
920;SDS011;447;51.332;6.778;2023-04-25T01:01:43;8.20;;;4.30;;
920;SDS011;447;51.332;6.778;2023-04-25T01:04:17;5.10;;;3.70;;
920;SDS011;447;51.332;6.778;2023-04-25T01:06:43;8.67;;;3.73;;
920;SDS011;447;51.332;6.778;2023-04-25T01:09:12;8.23;;;3.23;;
920;SDS011;447;51.332;6.778;2023-04-25T01:11:40;8.83;;;3.60;;
920;SDS011;447;51.332;6.778;2023-04-25T01:14:08;7.03;;;3.47;;
920;SDS011;447;51.332;6.778;2023-04-25T01:16:37;4.80;;;3.10;;
920;SDS011;447;51.332;6.778;2023-04-25T01:19:05;5.87;;;3.70;;
920;SDS011;447;51.332;6.778;2023-04-25T01:21:36;10.93;;;4.43;;
920;SDS011;447;51.332;6.778;2023-04-25T01:24:02;5.03;;;3.50;;
920;SDS011;447;51.332;6.778;2023-04-25T01:26:30;6.70;;;3.13;;
920;SDS011;447;51.332;6.778;2023-04-25T01:28:57;6.67;;;3.80;;
920;SDS011;447;51.332;6.778;2023-04-25T01:31:25;6.97;;;3.70;;
920;SDS011;447;51.332;6.778;2023-04-25T01:33:55;9.47;;;4.13;;
920;SDS011;447;51.332;6.778;2023-04-25T01:36:21;7.50;;;3.40;;
920;SDS011;447;51.332;6.778;2023-04-25T01:38:47;5.73;;;3.10;;
920;SDS011;447;51.332;6.778;2023-04-25T01:41:14;5.40;;;3.33;;
920;SDS011;447;51.332;6.778;2023-04-25T01:43:45;6.47;;;3.50;;
920;SDS011;447;51.332;6.778;2023-04-25T01:46:14;6.33;;;3.10;;
920;SDS011;447;51.332;6.778;2023-04-25T01:48:40;6.30;;;3.57;;
920;SDS011;447;51.332;6.778;2023-04-25T01:51:06;6.20;;;3.43;;
920;SDS011;447;51.332;6.778;2023-04-25T01:53:36;5.50;;;3.80;;
920;SDS011;447;51.332;6.778;2023-04-25T01:56:03;6.10;;;3.80;;
920;SDS011;447;51.332;6.778;2023-04-25T01:58:33;5.30;;;3.23;;
920;SDS011;447;51.332;6.778;2023-04-25T02:01:02;6.87;;;3.47;;
920;SDS011;447;51.332;6.778;2023-04-25T02:03:38;5.80;;;3.47;;
920;SDS011;447;51.332;6.778;2023-04-25T02:06:11;6.33;;;4.33;;
920;SDS011;447;51.332;6.778;2023-04-25T02:08:42;8.80;;;4.20;;
920;SDS011;447;51.332;6.778;2023-04-25T02:11:10;6.23;;;3.60;;
920;SDS011;447;51.332;6.778;2023-04-25T02:13:45;4.40;;;3.33;;
920;SDS011;447;51.332;6.778;2023-04-25T02:16:32;3.97;;;3.20;;
920;SDS011;447;51.332;6.778;2023-04-25T02:18:59;7.93;;;3.80;;
920;SDS011;447;51.332;6.778;2023-04-25T02:21:25;8.00;;;3.70;;
920;SDS011;447;51.332;6.778;2023-04-25T02:23:54;5.30;;;3.50;;
920;SDS011;447;51.332;6.778;2023-04-25T02:26:22;6.13;;;3.23;;
920;SDS011;447;51.332;6.778;2023-04-25T02:28:50;5.03;;;3.30;;
920;SDS011;447;51.332;6.778;2023-04-25T02:31:18;5.17;;;3.23;;
920;SDS011;447;51.332;6.778;2023-04-25T02:33:47;5.90;;;3.17;;
920;SDS011;447;51.332;6.778;2023-04-25T02:36:13;6.47;;;3.23;;
920;SDS011;447;51.332;6.778;2023-04-25T02:38:40;7.77;;;2.90;;
920;SDS011;447;51.332;6.778;2023-04-25T02:41:09;7.00;;;3.50;;
920;SDS011;447;51.332;6.778;2023-04-25T02:43:37;4.80;;;2.90;;
920;SDS011;447;51.332;6.778;2023-04-25T02:46:03;7.63;;;4.10;;
920;SDS011;447;51.332;6.778;2023-04-25T02:48:30;4.23;;;2.77;;
920;SDS011;447;51.332;6.778;2023-04-25T02:50:58;4.00;;;3.27;;
920;SDS011;447;51.332;6.778;2023-04-25T02:53:26;3.20;;;2.73;;
920;SDS011;447;51.332;6.778;2023-04-25T02:55:55;3.90;;;3.00;;
920;SDS011;447;51.332;6.778;2023-04-25T02:58:23;4.40;;;2.83;;
920;SDS011;447;51.332;6.778;2023-04-25T03:00:54;3.47;;;2.63;;
920;SDS011;447;51.332;6.778;2023-04-25T03:03:20;5.23;;;3.40;;
920;SDS011;447;51.332;6.778;2023-04-25T03:05:52;4.90;;;3.20;;
920;SDS011;447;51.332;6.778;2023-04-25T03:08:25;4.73;;;2.53;;
920;SDS011;447;51.332;6.778;2023-04-25T03:10:58;4.83;;;3.20;;
920;SDS011;447;51.332;6.778;2023-04-25T03:13:31;11.23;;;3.23;;
920;SDS011;447;51.332;6.778;2023-04-25T03:16:01;10.13;;;2.60;;
920;SDS011;447;51.332;6.778;2023-04-25T03:18:31;5.30;;;2.93;;
920;SDS011;447;51.332;6.778;2023-04-25T03:20:59;5.93;;;3.27;;
920;SDS011;447;51.332;6.778;2023-04-25T03:23:25;5.07;;;3.07;;
920;SDS011;447;51.332;6.778;2023-04-25T03:26:01;9.77;;;3.43;;
920;SDS011;447;51.332;6.778;2023-04-25T03:28:32;3.63;;;2.87;;
920;SDS011;447;51.332;6.778;2023-04-25T03:31:01;5.73;;;3.40;;
920;SDS011;447;51.332;6.778;2023-04-25T03:33:27;6.87;;;3.27;;
920;SDS011;447;51.332;6.778;2023-04-25T03:35:57;6.63;;;3.00;;
920;SDS011;447;51.332;6.778;2023-04-25T03:38:31;3.73;;;3.03;;
920;SDS011;447;51.332;6.778;2023-04-25T03:41:01;3.83;;;3.00;;
920;SDS011;447;51.332;6.778;2023-04-25T03:43:40;6.87;;;2.93;;
920;SDS011;447;51.332;6.778;2023-04-25T03:46:13;8.53;;;3.00;;
920;SDS011;447;51.332;6.778;2023-04-25T03:48:41;11.00;;;3.53;;
920;SDS011;447;51.332;6.778;2023-04-25T03:51:13;3.67;;;2.93;;
920;SDS011;447;51.332;6.778;2023-04-25T03:53:42;5.80;;;2.77;;
920;SDS011;447;51.332;6.778;2023-04-25T03:56:28;3.97;;;2.80;;
920;SDS011;447;51.332;6.778;2023-04-25T03:59:00;4.20;;;2.93;;
920;SDS011;447;51.332;6.778;2023-04-25T04:01:28;5.40;;;3.00;;
920;SDS011;447;51.332;6.778;2023-04-25T04:03:56;7.90;;;3.73;;
920;SDS011;447;51.332;6.778;2023-04-25T04:06:23;6.27;;;2.77;;
920;SDS011;447;51.332;6.778;2023-04-25T04:08:55;3.40;;;2.70;;
920;SDS011;447;51.332;6.778;2023-04-25T04:11:25;6.50;;;3.43;;
920;SDS011;447;51.332;6.778;2023-04-25T04:13:51;4.47;;;3.13;;
920;SDS011;447;51.332;6.778;2023-04-25T04:16:21;10.63;;;3.60;;
920;SDS011;447;51.332;6.778;2023-04-25T04:18:47;9.50;;;3.50;;
920;SDS011;447;51.332;6.778;2023-04-25T04:21:15;4.43;;;2.83;;
920;SDS011;447;51.332;6.778;2023-04-25T04:23:41;11.50;;;2.87;;
920;SDS011;447;51.332;6.778;2023-04-25T04:26:10;7.13;;;3.20;;
920;SDS011;447;51.332;6.778;2023-04-25T04:29:03;7.03;;;3.60;;
920;SDS011;447;51.332;6.778;2023-04-25T04:31:44;6.10;;;2.80;;
920;SDS011;447;51.332;6.778;2023-04-25T04:34:10;7.80;;;3.33;;
920;SDS011;447;51.332;6.778;2023-04-25T04:36:41;7.87;;;3.30;;
920;SDS011;447;51.332;6.778;2023-04-25T04:39:07;7.60;;;3.20;;
920;SDS011;447;51.332;6.778;2023-04-25T04:42:02;6.27;;;3.10;;
920;SDS011;447;51.332;6.778;2023-04-25T04:44:53;7.70;;;2.97;;
920;SDS011;447;51.332;6.778;2023-04-25T04:47:38;9.30;;;3.70;;
920;SDS011;447;51.332;6.778;2023-04-25T04:50:32;4.57;;;2.73;;
920;SDS011;447;51.332;6.778;2023-04-25T04:53:17;6.30;;;3.40;;
920;SDS011;447;51.332;6.778;2023-04-25T04:55:52;9.40;;;3.60;;
920;SDS011;447;51.332;6.778;2023-04-25T04:58:47;4.20;;;2.80;;
920;SDS011;447;51.332;6.778;2023-04-25T05:01:43;9.43;;;3.40;;
920;SDS011;447;51.332;6.778;2023-04-25T05:04:33;10.40;;;3.30;;
920;SDS011;447;51.332;6.778;2023-04-25T05:07:17;9.57;;;3.60;;
920;SDS011;447;51.332;6.778;2023-04-25T05:10:02;8.33;;;3.87;;
920;SDS011;447;51.332;6.778;2023-04-25T05:12:32;7.47;;;3.60;;
920;SDS011;447;51.332;6.778;2023-04-25T05:15:29;6.47;;;3.27;;
920;SDS011;447;51.332;6.778;2023-04-25T05:18:17;6.13;;;3.80;;
920;SDS011;447;51.332;6.778;2023-04-25T05:21:04;4.70;;;3.60;;
920;SDS011;447;51.332;6.778;2023-04-25T05:23:54;7.43;;;3.10;;
920;SDS011;447;51.332;6.778;2023-04-25T05:26:42;9.80;;;4.10;;
920;SDS011;447;51.332;6.778;2023-04-25T05:29:29;6.40;;;3.90;;
920;SDS011;447;51.332;6.778;2023-04-25T05:32:24;7.33;;;3.90;;
920;SDS011;447;51.332;6.778;2023-04-25T05:34:53;8.53;;;3.50;;
920;SDS011;447;51.332;6.778;2023-04-25T05:37:26;5.47;;;3.80;;
920;SDS011;447;51.332;6.778;2023-04-25T05:39:55;7.97;;;4.20;;
920;SDS011;447;51.332;6.778;2023-04-25T05:42:50;10.80;;;3.77;;
920;SDS011;447;51.332;6.778;2023-04-25T05:45:19;5.40;;;3.70;;
920;SDS011;447;51.332;6.778;2023-04-25T05:48:05;6.40;;;3.33;;
920;SDS011;447;51.332;6.778;2023-04-25T05:50:54;11.50;;;4.47;;
920;SDS011;447;51.332;6.778;2023-04-25T05:53:39;10.57;;;3.83;;
920;SDS011;447;51.332;6.778;2023-04-25T05:56:14;9.00;;;3.70;;
920;SDS011;447;51.332;6.778;2023-04-25T05:58:40;8.00;;;4.40;;
920;SDS011;447;51.332;6.778;2023-04-25T06:01:10;9.30;;;4.27;;
920;SDS011;447;51.332;6.778;2023-04-25T06:03:37;9.40;;;5.13;;
920;SDS011;447;51.332;6.778;2023-04-25T06:06:05;11.30;;;6.13;;
920;SDS011;447;51.332;6.778;2023-04-25T06:08:34;11.97;;;5.77;;
920;SDS011;447;51.332;6.778;2023-04-25T06:11:00;12.37;;;6.27;;
920;SDS011;447;51.332;6.778;2023-04-25T06:13:26;14.27;;;6.13;;
920;SDS011;447;51.332;6.778;2023-04-25T06:15:55;13.60;;;6.63;;
920;SDS011;447;51.332;6.778;2023-04-25T06:18:21;10.93;;;6.80;;
920;SDS011;447;51.332;6.778;2023-04-25T06:20:51;12.00;;;5.80;;
920;SDS011;447;51.332;6.778;2023-04-25T06:23:19;10.80;;;5.87;;
920;SDS011;447;51.332;6.778;2023-04-25T06:25:51;14.17;;;6.53;;
920;SDS011;447;51.332;6.778;2023-04-25T06:28:17;15.37;;;6.63;;
920;SDS011;447;51.332;6.778;2023-04-25T06:30:43;10.37;;;5.80;;
920;SDS011;447;51.332;6.778;2023-04-25T06:33:13;14.20;;;7.00;;
920;SDS011;447;51.332;6.778;2023-04-25T06:35:39;13.20;;;6.63;;
920;SDS011;447;51.332;6.778;2023-04-25T06:38:09;9.10;;;5.70;;
920;SDS011;447;51.332;6.778;2023-04-25T06:40:37;10.33;;;5.40;;
920;SDS011;447;51.332;6.778;2023-04-25T06:43:03;14.40;;;5.20;;
920;SDS011;447;51.332;6.778;2023-04-25T06:45:46;9.57;;;5.93;;
920;SDS011;447;51.332;6.778;2023-04-25T06:48:18;14.23;;;4.80;;
920;SDS011;447;51.332;6.778;2023-04-25T06:50:45;9.70;;;4.60;;
920;SDS011;447;51.332;6.778;2023-04-25T06:53:14;9.13;;;4.80;;
920;SDS011;447;51.332;6.778;2023-04-25T06:55:42;17.23;;;4.87;;
920;SDS011;447;51.332;6.778;2023-04-25T06:58:22;9.70;;;4.27;;
920;SDS011;447;51.332;6.778;2023-04-25T07:00:53;10.97;;;4.83;;
920;SDS011;447;51.332;6.778;2023-04-25T07:03:26;8.60;;;4.40;;
920;SDS011;447;51.332;6.778;2023-04-25T07:05:57;7.67;;;3.90;;
920;SDS011;447;51.332;6.778;2023-04-25T07:08:28;6.27;;;4.17;;
920;SDS011;447;51.332;6.778;2023-04-25T07:10:56;10.83;;;4.23;;
920;SDS011;447;51.332;6.778;2023-04-25T07:13:22;8.77;;;3.70;;
920;SDS011;447;51.332;6.778;2023-04-25T07:15:48;6.77;;;3.47;;
920;SDS011;447;51.332;6.778;2023-04-25T07:18:16;9.80;;;4.27;;
920;SDS011;447;51.332;6.778;2023-04-25T07:20:42;8.37;;;3.53;;
920;SDS011;447;51.332;6.778;2023-04-25T07:23:15;9.07;;;3.73;;
920;SDS011;447;51.332;6.778;2023-04-25T07:25:41;11.67;;;4.40;;
920;SDS011;447;51.332;6.778;2023-04-25T07:28:10;8.10;;;4.30;;
920;SDS011;447;51.332;6.778;2023-04-25T07:30:36;10.07;;;3.70;;
920;SDS011;447;51.332;6.778;2023-04-25T07:33:05;7.70;;;4.80;;
920;SDS011;447;51.332;6.778;2023-04-25T07:35:31;8.90;;;3.83;;
920;SDS011;447;51.332;6.778;2023-04-25T07:38:00;8.73;;;3.73;;
920;SDS011;447;51.332;6.778;2023-04-25T07:40:29;5.73;;;3.57;;
920;SDS011;447;51.332;6.778;2023-04-25T07:43:03;9.87;;;3.90;;
920;SDS011;447;51.332;6.778;2023-04-25T07:45:55;8.73;;;3.70;;
920;SDS011;447;51.332;6.778;2023-04-25T07:48:22;8.83;;;3.70;;
920;SDS011;447;51.332;6.778;2023-04-25T07:50:51;9.37;;;3.97;;
920;SDS011;447;51.332;6.778;2023-04-25T07:53:17;8.63;;;4.93;;
920;SDS011;447;51.332;6.778;2023-04-25T07:55:50;10.57;;;4.00;;
920;SDS011;447;51.332;6.778;2023-04-25T07:58:17;10.00;;;4.20;;
920;SDS011;447;51.332;6.778;2023-04-25T08:00:48;6.00;;;3.43;;
920;SDS011;447;51.332;6.778;2023-04-25T08:03:34;7.30;;;3.53;;
920;SDS011;447;51.332;6.778;2023-04-25T08:06:03;4.70;;;3.30;;
920;SDS011;447;51.332;6.778;2023-04-25T08:08:31;7.03;;;3.80;;
920;SDS011;447;51.332;6.778;2023-04-25T08:11:00;7.13;;;3.33;;
920;SDS011;447;51.332;6.778;2023-04-25T08:13:26;11.23;;;4.10;;
920;SDS011;447;51.332;6.778;2023-04-25T08:15:57;9.97;;;3.83;;
920;SDS011;447;51.332;6.778;2023-04-25T08:18:23;7.23;;;3.60;;
920;SDS011;447;51.332;6.778;2023-04-25T08:20:49;8.03;;;3.50;;
920;SDS011;447;51.332;6.778;2023-04-25T08:23:23;8.40;;;3.90;;
920;SDS011;447;51.332;6.778;2023-04-25T08:26:00;10.67;;;3.30;;
920;SDS011;447;51.332;6.778;2023-04-25T08:28:34;10.20;;;3.50;;
920;SDS011;447;51.332;6.778;2023-04-25T08:31:03;6.27;;;3.23;;
920;SDS011;447;51.332;6.778;2023-04-25T08:33:40;8.60;;;4.07;;
920;SDS011;447;51.332;6.778;2023-04-25T08:36:19;8.53;;;4.23;;
920;SDS011;447;51.332;6.778;2023-04-25T08:38:47;7.73;;;4.37;;
920;SDS011;447;51.332;6.778;2023-04-25T08:41:19;8.10;;;3.37;;
920;SDS011;447;51.332;6.778;2023-04-25T08:43:49;13.20;;;4.57;;
920;SDS011;447;51.332;6.778;2023-04-25T08:46:18;7.90;;;3.60;;
920;SDS011;447;51.332;6.778;2023-04-25T08:49:01;8.80;;;3.90;;
920;SDS011;447;51.332;6.778;2023-04-25T08:51:28;6.50;;;3.70;;
920;SDS011;447;51.332;6.778;2023-04-25T08:54:09;8.17;;;4.07;;
920;SDS011;447;51.332;6.778;2023-04-25T08:56:46;8.87;;;4.10;;
920;SDS011;447;51.332;6.778;2023-04-25T08:59:18;6.57;;;3.30;;
920;SDS011;447;51.332;6.778;2023-04-25T09:01:46;9.33;;;4.00;;
920;SDS011;447;51.332;6.778;2023-04-25T09:04:18;5.00;;;3.40;;
920;SDS011;447;51.332;6.778;2023-04-25T09:06:48;7.67;;;3.83;;
920;SDS011;447;51.332;6.778;2023-04-25T09:09:14;5.40;;;3.43;;
920;SDS011;447;51.332;6.778;2023-04-25T09:11:41;7.37;;;3.73;;
920;SDS011;447;51.332;6.778;2023-04-25T09:14:15;4.97;;;2.83;;
920;SDS011;447;51.332;6.778;2023-04-25T09:19:51;5.23;;;3.33;;
920;SDS011;447;51.332;6.778;2023-04-25T09:22:27;4.83;;;3.40;;
920;SDS011;447;51.332;6.778;2023-04-25T09:24:55;6.77;;;3.00;;
920;SDS011;447;51.332;6.778;2023-04-25T09:27:25;6.33;;;3.13;;
920;SDS011;447;51.332;6.778;2023-04-25T09:30:28;4.90;;;2.67;;
920;SDS011;447;51.332;6.778;2023-04-25T09:33:04;6.50;;;2.80;;
920;SDS011;447;51.332;6.778;2023-04-25T09:35:44;8.77;;;2.50;;
920;SDS011;447;51.332;6.778;2023-04-25T09:38:22;4.63;;;2.83;;
920;SDS011;447;51.332;6.778;2023-04-25T09:40:48;5.23;;;2.07;;
920;SDS011;447;51.332;6.778;2023-04-25T09:43:25;4.00;;;2.90;;
920;SDS011;447;51.332;6.778;2023-04-25T09:45:51;5.77;;;2.80;;
920;SDS011;447;51.332;6.778;2023-04-25T09:48:24;9.50;;;2.67;;
920;SDS011;447;51.332;6.778;2023-04-25T09:53:29;5.13;;;2.60;;
920;SDS011;447;51.332;6.778;2023-04-25T09:56:15;5.40;;;2.70;;
920;SDS011;447;51.332;6.778;2023-04-25T09:58:41;4.70;;;2.73;;
920;SDS011;447;51.332;6.778;2023-04-25T10:01:10;6.70;;;3.37;;
920;SDS011;447;51.332;6.778;2023-04-25T10:03:48;5.60;;;3.50;;
920;SDS011;447;51.332;6.778;2023-04-25T10:06:35;4.23;;;3.10;;
920;SDS011;447;51.332;6.778;2023-04-25T10:09:01;10.30;;;4.37;;
920;SDS011;447;51.332;6.778;2023-04-25T10:11:29;7.10;;;4.17;;
920;SDS011;447;51.332;6.778;2023-04-25T10:13:56;6.40;;;4.00;;
920;SDS011;447;51.332;6.778;2023-04-25T10:16:23;11.17;;;3.80;;
920;SDS011;447;51.332;6.778;2023-04-25T10:18:55;6.07;;;3.90;;
920;SDS011;447;51.332;6.778;2023-04-25T10:21:25;8.03;;;4.70;;
920;SDS011;447;51.332;6.778;2023-04-25T10:23:53;12.00;;;8.40;;
920;SDS011;447;51.332;6.778;2023-04-25T10:26:20;8.70;;;5.30;;
920;SDS011;447;51.332;6.778;2023-04-25T10:31:30;10.97;;;6.60;;
920;SDS011;447;51.332;6.778;2023-04-25T10:33:59;7.77;;;5.40;;
920;SDS011;447;51.332;6.778;2023-04-25T10:36:26;10.13;;;5.83;;
920;SDS011;447;51.332;6.778;2023-04-25T10:38:58;7.87;;;5.47;;
920;SDS011;447;51.332;6.778;2023-04-25T10:41:34;6.17;;;4.60;;
920;SDS011;447;51.332;6.778;2023-04-25T10:44:12;9.43;;;4.90;;
920;SDS011;447;51.332;6.778;2023-04-25T10:46:39;7.57;;;4.63;;
920;SDS011;447;51.332;6.778;2023-04-25T10:49:05;8.80;;;4.00;;
920;SDS011;447;51.332;6.778;2023-04-25T10:51:36;5.70;;;3.70;;
920;SDS011;447;51.332;6.778;2023-04-25T10:54:05;5.37;;;4.30;;
920;SDS011;447;51.332;6.778;2023-04-25T10:56:38;6.33;;;3.60;;
920;SDS011;447;51.332;6.778;2023-04-25T10:59:16;8.57;;;3.03;;
920;SDS011;447;51.332;6.778;2023-04-25T11:01:46;9.30;;;3.70;;
920;SDS011;447;51.332;6.778;2023-04-25T11:04:24;5.40;;;3.57;;
920;SDS011;447;51.332;6.778;2023-04-25T11:10:03;9.70;;;3.43;;
920;SDS011;447;51.332;6.778;2023-04-25T11:12:36;2.97;;;2.63;;
920;SDS011;447;51.332;6.778;2023-04-25T11:15:03;6.60;;;3.37;;
920;SDS011;447;51.332;6.778;2023-04-25T11:17:34;3.77;;;2.27;;
920;SDS011;447;51.332;6.778;2023-04-25T11:20:03;8.00;;;2.93;;
920;SDS011;447;51.332;6.778;2023-04-25T11:22:35;6.77;;;2.77;;
920;SDS011;447;51.332;6.778;2023-04-25T11:25:09;5.50;;;2.50;;
920;SDS011;447;51.332;6.778;2023-04-25T11:27:52;7.10;;;3.20;;
920;SDS011;447;51.332;6.778;2023-04-25T11:30:19;6.53;;;3.07;;
920;SDS011;447;51.332;6.778;2023-04-25T11:32:49;9.80;;;2.67;;
920;SDS011;447;51.332;6.778;2023-04-25T11:35:15;4.37;;;2.70;;
920;SDS011;447;51.332;6.778;2023-04-25T11:37:42;8.03;;;2.90;;
920;SDS011;447;51.332;6.778;2023-04-25T11:40:11;9.47;;;2.77;;
920;SDS011;447;51.332;6.778;2023-04-25T11:42:43;8.23;;;2.73;;
920;SDS011;447;51.332;6.778;2023-04-25T11:45:12;4.63;;;2.37;;
920;SDS011;447;51.332;6.778;2023-04-25T11:47:39;4.90;;;2.70;;
920;SDS011;447;51.332;6.778;2023-04-25T11:50:06;6.63;;;2.70;;
920;SDS011;447;51.332;6.778;2023-04-25T11:55:06;5.70;;;2.87;;
920;SDS011;447;51.332;6.778;2023-04-25T11:57:42;6.23;;;3.07;;
920;SDS011;447;51.332;6.778;2023-04-25T12:00:10;6.80;;;3.63;;
920;SDS011;447;51.332;6.778;2023-04-25T12:02:41;7.77;;;3.57;;
920;SDS011;447;51.332;6.778;2023-04-25T12:05:08;8.30;;;2.93;;
920;SDS011;447;51.332;6.778;2023-04-25T12:07:35;7.63;;;3.27;;
920;SDS011;447;51.332;6.778;2023-04-25T12:10:08;10.60;;;3.63;;
920;SDS011;447;51.332;6.778;2023-04-25T12:12:42;5.63;;;3.83;;
920;SDS011;447;51.332;6.778;2023-04-25T12:15:15;4.70;;;3.00;;
920;SDS011;447;51.332;6.778;2023-04-25T12:17:49;6.60;;;3.70;;
920;SDS011;447;51.332;6.778;2023-04-25T12:20:20;4.50;;;3.50;;
920;SDS011;447;51.332;6.778;2023-04-25T12:22:49;5.50;;;3.33;;
920;SDS011;447;51.332;6.778;2023-04-25T12:25:34;4.70;;;2.87;;
920;SDS011;447;51.332;6.778;2023-04-25T12:28:12;7.90;;;3.50;;
920;SDS011;447;51.332;6.778;2023-04-25T12:31:00;6.13;;;2.97;;
920;SDS011;447;51.332;6.778;2023-04-25T12:33:31;13.33;;;2.73;;
920;SDS011;447;51.332;6.778;2023-04-25T12:36:02;4.17;;;2.40;;
920;SDS011;447;51.332;6.778;2023-04-25T12:38:37;7.90;;;3.23;;
920;SDS011;447;51.332;6.778;2023-04-25T12:41:10;8.03;;;2.80;;
920;SDS011;447;51.332;6.778;2023-04-25T12:43:36;3.67;;;2.50;;
920;SDS011;447;51.332;6.778;2023-04-25T12:46:02;5.17;;;2.43;;
920;SDS011;447;51.332;6.778;2023-04-25T12:48:31;3.97;;;2.73;;
920;SDS011;447;51.332;6.778;2023-04-25T12:50:59;7.00;;;3.23;;
920;SDS011;447;51.332;6.778;2023-04-25T12:53:30;6.27;;;2.80;;
920;SDS011;447;51.332;6.778;2023-04-25T12:55:58;3.83;;;2.53;;
920;SDS011;447;51.332;6.778;2023-04-25T12:58:23;4.73;;;2.70;;
920;SDS011;447;51.332;6.778;2023-04-25T13:00:52;2.80;;;2.00;;
920;SDS011;447;51.332;6.778;2023-04-25T13:03:18;5.03;;;2.73;;
920;SDS011;447;51.332;6.778;2023-04-25T13:05:47;6.50;;;2.47;;
920;SDS011;447;51.332;6.778;2023-04-25T13:08:20;6.47;;;2.50;;
920;SDS011;447;51.332;6.778;2023-04-25T13:10:47;8.10;;;2.67;;
920;SDS011;447;51.332;6.778;2023-04-25T13:13:13;4.53;;;2.40;;
920;SDS011;447;51.332;6.778;2023-04-25T13:15:44;7.43;;;2.17;;
920;SDS011;447;51.332;6.778;2023-04-25T13:18:12;4.43;;;2.60;;
920;SDS011;447;51.332;6.778;2023-04-25T13:20:38;5.87;;;2.10;;
920;SDS011;447;51.332;6.778;2023-04-25T13:23:04;5.37;;;2.13;;
920;SDS011;447;51.332;6.778;2023-04-25T13:25:32;5.37;;;2.33;;
920;SDS011;447;51.332;6.778;2023-04-25T13:27:59;6.67;;;2.27;;
920;SDS011;447;51.332;6.778;2023-04-25T13:30:27;6.03;;;2.70;;
920;SDS011;447;51.332;6.778;2023-04-25T13:32:55;3.40;;;2.33;;
920;SDS011;447;51.332;6.778;2023-04-25T13:35:27;8.33;;;3.03;;
920;SDS011;447;51.332;6.778;2023-04-25T13:37:57;4.20;;;2.50;;
920;SDS011;447;51.332;6.778;2023-04-25T13:40:23;5.20;;;2.33;;
920;SDS011;447;51.332;6.778;2023-04-25T13:42:49;4.33;;;1.73;;
920;SDS011;447;51.332;6.778;2023-04-25T13:45:16;2.30;;;1.60;;
920;SDS011;447;51.332;6.778;2023-04-25T13:47:47;6.90;;;2.33;;
920;SDS011;447;51.332;6.778;2023-04-25T13:50:17;3.70;;;1.80;;
920;SDS011;447;51.332;6.778;2023-04-25T13:52:45;3.77;;;2.33;;
920;SDS011;447;51.332;6.778;2023-04-25T13:55:11;4.57;;;2.03;;
920;SDS011;447;51.332;6.778;2023-04-25T13:57:37;2.93;;;1.60;;
920;SDS011;447;51.332;6.778;2023-04-25T14:00:06;4.13;;;1.80;;
920;SDS011;447;51.332;6.778;2023-04-25T14:02:36;3.57;;;2.10;;
920;SDS011;447;51.332;6.778;2023-04-25T14:05:03;6.00;;;2.43;;
920;SDS011;447;51.332;6.778;2023-04-25T14:07:31;7.00;;;2.10;;
920;SDS011;447;51.332;6.778;2023-04-25T14:10:01;3.13;;;2.00;;
920;SDS011;447;51.332;6.778;2023-04-25T14:12:27;5.67;;;2.40;;
920;SDS011;447;51.332;6.778;2023-04-25T14:15:00;5.63;;;1.80;;
920;SDS011;447;51.332;6.778;2023-04-25T14:17:26;2.87;;;1.90;;
920;SDS011;447;51.332;6.778;2023-04-25T14:19:52;5.60;;;1.70;;
920;SDS011;447;51.332;6.778;2023-04-25T14:22:25;4.20;;;2.10;;
920;SDS011;447;51.332;6.778;2023-04-25T14:24:53;4.00;;;2.00;;
920;SDS011;447;51.332;6.778;2023-04-25T14:27:24;6.33;;;2.13;;
920;SDS011;447;51.332;6.778;2023-04-25T14:29:50;4.10;;;1.90;;
920;SDS011;447;51.332;6.778;2023-04-25T14:32:18;2.70;;;1.87;;
920;SDS011;447;51.332;6.778;2023-04-25T14:34:45;3.87;;;2.00;;
920;SDS011;447;51.332;6.778;2023-04-25T14:37:11;7.87;;;2.40;;
920;SDS011;447;51.332;6.778;2023-04-25T14:39:37;2.47;;;1.80;;
920;SDS011;447;51.332;6.778;2023-04-25T14:42:03;6.70;;;1.90;;
920;SDS011;447;51.332;6.778;2023-04-25T14:44:29;7.40;;;2.10;;
920;SDS011;447;51.332;6.778;2023-04-25T14:46:55;3.37;;;1.57;;
920;SDS011;447;51.332;6.778;2023-04-25T14:49:21;6.60;;;2.30;;
920;SDS011;447;51.332;6.778;2023-04-25T14:51:47;2.40;;;1.73;;
920;SDS011;447;51.332;6.778;2023-04-25T14:54:15;3.30;;;2.10;;
920;SDS011;447;51.332;6.778;2023-04-25T14:56:44;5.73;;;2.20;;
920;SDS011;447;51.332;6.778;2023-04-25T14:59:12;3.47;;;1.83;;
920;SDS011;447;51.332;6.778;2023-04-25T15:01:53;2.00;;;1.63;;
920;SDS011;447;51.332;6.778;2023-04-25T15:04:26;4.97;;;2.10;;
920;SDS011;447;51.332;6.778;2023-04-25T15:06:53;5.23;;;1.90;;
920;SDS011;447;51.332;6.778;2023-04-25T15:09:19;3.33;;;1.80;;
920;SDS011;447;51.332;6.778;2023-04-25T15:11:48;5.13;;;2.10;;
920;SDS011;447;51.332;6.778;2023-04-25T15:14:15;3.63;;;1.43;;
920;SDS011;447;51.332;6.778;2023-04-25T15:16:53;6.93;;;2.33;;
920;SDS011;447;51.332;6.778;2023-04-25T15:19:20;7.10;;;4.40;;
920;SDS011;447;51.332;6.778;2023-04-25T15:21:46;9.57;;;3.33;;
920;SDS011;447;51.332;6.778;2023-04-25T15:24:17;6.43;;;3.00;;
920;SDS011;447;51.332;6.778;2023-04-25T15:26:43;5.43;;;2.83;;
920;SDS011;447;51.332;6.778;2023-04-25T15:29:11;9.63;;;3.37;;
920;SDS011;447;51.332;6.778;2023-04-25T15:31:37;7.20;;;3.37;;
920;SDS011;447;51.332;6.778;2023-04-25T15:34:05;6.97;;;3.00;;
920;SDS011;447;51.332;6.778;2023-04-25T15:36:31;3.23;;;2.23;;
920;SDS011;447;51.332;6.778;2023-04-25T15:41:53;6.10;;;2.87;;
920;SDS011;447;51.332;6.778;2023-04-25T15:44:27;3.73;;;2.43;;
920;SDS011;447;51.332;6.778;2023-04-25T15:57:21;5.47;;;2.43;;
920;SDS011;447;51.332;6.778;2023-04-25T15:59:58;5.77;;;2.20;;
920;SDS011;447;51.332;6.778;2023-04-25T16:06:54;5.67;;;2.17;;
920;SDS011;447;51.332;6.778;2023-04-25T16:09:23;2.47;;;2.13;;
920;SDS011;447;51.332;6.778;2023-04-25T16:11:51;2.10;;;1.90;;
920;SDS011;447;51.332;6.778;2023-04-25T16:14:20;4.63;;;2.20;;
920;SDS011;447;51.332;6.778;2023-04-25T16:16:46;4.57;;;1.70;;
920;SDS011;447;51.332;6.778;2023-04-25T16:19:14;4.27;;;2.17;;
920;SDS011;447;51.332;6.778;2023-04-25T16:21:42;5.07;;;1.90;;
920;SDS011;447;51.332;6.778;2023-04-25T16:24:08;3.93;;;1.90;;
920;SDS011;447;51.332;6.778;2023-04-25T16:26:37;3.20;;;2.07;;
920;SDS011;447;51.332;6.778;2023-04-25T16:29:09;4.30;;;1.80;;
920;SDS011;447;51.332;6.778;2023-04-25T16:31:38;5.80;;;2.37;;
920;SDS011;447;51.332;6.778;2023-04-25T16:34:07;4.40;;;2.20;;
920;SDS011;447;51.332;6.778;2023-04-25T16:36:36;3.23;;;2.10;;
920;SDS011;447;51.332;6.778;2023-04-25T16:39:05;3.90;;;1.83;;